createdAt,value
2023-05-20T00:00:03.338Z,17.00
2023-05-20T00:02:32.042Z,16.99
2023-05-20T00:05:03.397Z,16.93
2023-05-20T00:07:30.126Z,16.83
2023-05-20T00:09:59.816Z,16.82
2023-05-20T00:12:26.641Z,16.84
2023-05-20T00:14:55.924Z,16.84
2023-05-20T00:17:26.650Z,16.87
2023-05-20T00:19:53.353Z,16.74
2023-05-20T00:22:20.086Z,16.66
2023-05-20T00:24:49.080Z,16.64
2023-05-20T00:27:18.225Z,16.65
2023-05-20T00:29:48.165Z,16.60
2023-05-20T00:32:17.398Z,16.58
2023-05-20T00:34:44.533Z,16.54
2023-05-20T00:37:11.177Z,16.39
2023-05-20T00:39:37.832Z,16.33
2023-05-20T00:42:04.848Z,16.31
2023-05-20T00:44:33.961Z,16.20
2023-05-20T00:47:03.577Z,16.13
2023-05-20T00:49:33.509Z,16.11
2023-05-20T00:52:00.145Z,16.09
2023-05-20T00:54:26.798Z,16.12
2023-05-20T00:56:53.494Z,16.19
2023-05-20T00:59:20.563Z,16.27
2023-05-20T01:01:47.270Z,16.31
2023-05-20T01:04:14.004Z,16.33
2023-05-20T01:06:51.003Z,16.38
2023-05-20T01:09:17.694Z,16.45
2023-05-20T01:11:53.020Z,16.48
2023-05-20T01:14:19.826Z,16.47
2023-05-20T01:16:50.319Z,16.52
2023-05-20T01:19:44.117Z,16.59
2023-05-20T01:22:13.719Z,16.60
2023-05-20T01:24:44.320Z,16.65
2023-05-20T01:27:11.756Z,16.62
2023-05-20T01:29:44.112Z,16.63
2023-05-20T01:32:11.591Z,16.62
2023-05-20T01:34:39.514Z,16.64
2023-05-20T01:37:06.372Z,16.68
2023-05-20T01:39:33.836Z,16.70
2023-05-20T01:42:00.902Z,16.73
2023-05-20T01:44:27.835Z,16.64
2023-05-20T01:46:54.612Z,16.62
2023-05-20T01:49:21.739Z,16.59
2023-05-20T01:51:48.461Z,16.63
2023-05-20T01:54:15.093Z,16.59
2023-05-20T01:56:44.196Z,16.66
2023-05-20T01:59:13.215Z,16.61
2023-05-20T02:01:39.883Z,16.61
2023-05-20T02:04:06.605Z,16.61
2023-05-20T02:06:36.158Z,16.60
2023-05-20T02:09:05.398Z,16.60
2023-05-20T02:11:37.489Z,16.62
2023-05-20T02:14:04.173Z,16.69
2023-05-20T02:16:30.970Z,16.70
2023-05-20T02:18:58.692Z,16.72
2023-05-20T02:21:25.974Z,16.71
2023-05-20T02:23:53.797Z,16.63
2023-05-20T02:26:20.820Z,16.59
2023-05-20T02:28:50.747Z,16.58
2023-05-20T02:31:17.944Z,16.53
2023-05-20T02:33:47.934Z,16.52
2023-05-20T02:36:17.338Z,16.48
2023-05-20T02:38:45.090Z,16.47
2023-05-20T02:41:11.817Z,16.47
2023-05-20T02:43:41.196Z,16.47
2023-05-20T02:46:10.019Z,16.46
2023-05-20T02:48:39.948Z,16.42
2023-05-20T02:51:07.098Z,16.29
2023-05-20T02:53:33.811Z,16.18
2023-05-20T02:56:01.749Z,16.20
2023-05-20T02:58:36.456Z,16.26
2023-05-20T03:01:07.259Z,16.23
2023-05-20T03:03:33.989Z,16.23
2023-05-20T03:06:00.944Z,16.15
2023-05-20T03:08:27.667Z,16.11
2023-05-20T03:10:56.941Z,16.07
2023-05-20T03:13:23.854Z,16.06
2023-05-20T03:15:53.389Z,16.05
2023-05-20T03:18:28.044Z,16.07
2023-05-20T03:20:57.536Z,16.07
2023-05-20T03:23:24.267Z,16.08
2023-05-20T03:25:51.210Z,15.96
2023-05-20T03:28:18.010Z,15.94
2023-05-20T03:30:44.750Z,16.00
2023-05-20T03:33:14.626Z,16.08
2023-05-20T03:35:41.290Z,16.12
2023-05-20T03:38:07.882Z,16.17
2023-05-20T03:40:37.174Z,16.24
2023-05-20T03:43:05.385Z,16.30
2023-05-20T03:45:34.325Z,16.33
2023-05-20T03:48:07.122Z,16.33
2023-05-20T03:50:40.922Z,16.30
2023-05-20T03:53:07.866Z,16.29
2023-05-20T03:55:39.606Z,16.36
2023-05-20T03:58:06.963Z,16.41
2023-05-20T04:00:36.372Z,16.36
2023-05-20T04:03:03.370Z,16.29
2023-05-20T04:05:30.320Z,16.21
2023-05-20T04:08:01.229Z,16.21
2023-05-20T04:10:27.917Z,16.15
2023-05-20T04:12:57.027Z,16.13
2023-05-20T04:15:26.584Z,15.97
2023-05-20T04:17:55.898Z,15.90
2023-05-20T04:20:25.639Z,15.88
2023-05-20T04:22:55.453Z,15.94
2023-05-20T04:25:22.337Z,15.98
2023-05-20T04:27:49.856Z,16.06
2023-05-20T04:30:21.824Z,16.13
2023-05-20T04:32:51.186Z,16.06
2023-05-20T04:35:18.426Z,16.04
2023-05-20T04:37:49.517Z,15.98
2023-05-20T04:40:17.164Z,16.06
2023-05-20T04:42:45.026Z,16.09
2023-05-20T04:45:12.725Z,16.13
2023-05-20T04:47:42.636Z,16.17
2023-05-20T04:50:12.379Z,16.26
2023-05-20T04:52:43.840Z,16.32
2023-05-20T04:55:16.304Z,16.35
2023-05-20T04:57:45.552Z,16.34
2023-05-20T05:00:13.445Z,16.34
2023-05-20T05:02:43.797Z,16.43
2023-05-20T05:05:10.564Z,16.45
2023-05-20T05:07:38.281Z,16.48
2023-05-20T05:10:08.204Z,16.54
2023-05-20T05:12:35.106Z,16.66
2023-05-20T05:15:03.485Z,16.77
2023-05-20T05:17:30.331Z,16.78
2023-05-20T05:20:00.452Z,16.87
2023-05-20T05:22:31.556Z,16.93
2023-05-20T05:24:59.043Z,17.01
2023-05-20T05:27:30.567Z,17.06
2023-05-20T05:30:00.175Z,17.12
2023-05-20T05:32:44.403Z,17.15
2023-05-20T05:35:11.454Z,17.18
2023-05-20T05:37:39.195Z,17.18
2023-05-20T05:40:11.510Z,17.25
2023-05-20T05:42:41.253Z,17.39
2023-05-20T05:45:14.591Z,17.42
2023-05-20T05:47:47.229Z,17.45
2023-05-20T05:50:14.468Z,17.56
2023-05-20T05:52:41.483Z,17.70
2023-05-20T05:55:10.681Z,17.77
2023-05-20T05:57:40.459Z,17.77
2023-05-20T06:00:11.453Z,17.79
2023-05-20T06:02:49.798Z,17.81
2023-05-20T06:05:34.291Z,17.90
2023-05-20T06:08:07.083Z,18.00
2023-05-20T06:10:36.889Z,18.06
2023-05-20T06:13:05.965Z,18.11
2023-05-20T06:15:36.419Z,18.21
2023-05-20T06:18:08.131Z,18.28
2023-05-20T06:20:37.449Z,18.35
2023-05-20T06:23:04.176Z,18.46
2023-05-20T06:25:39.551Z,18.51
2023-05-20T06:28:06.877Z,18.57
2023-05-20T06:30:35.691Z,18.61
2023-05-20T06:33:02.959Z,18.66
2023-05-20T06:35:30.859Z,18.73
2023-05-20T06:38:01.270Z,18.79
2023-05-20T06:40:28.391Z,18.87
2023-05-20T06:42:55.090Z,18.95
2023-05-20T06:45:42.208Z,19.08
2023-05-20T06:48:26.946Z,19.12
2023-05-20T06:50:54.255Z,19.18
2023-05-20T06:53:21.673Z,19.28
2023-05-20T06:55:48.430Z,19.35
2023-05-20T06:58:18.050Z,19.39
2023-05-20T07:00:44.766Z,19.43
2023-05-20T07:03:11.788Z,19.52
2023-05-20T07:05:40.673Z,19.59
2023-05-20T07:08:11.441Z,19.67
2023-05-20T07:10:38.706Z,19.80
2023-05-20T07:13:07.982Z,19.94
2023-05-20T07:15:34.946Z,20.10
2023-05-20T07:18:02.261Z,20.21
2023-05-20T07:20:32.303Z,20.25
2023-05-20T07:23:05.995Z,20.35
2023-05-20T07:25:42.202Z,20.42
2023-05-20T07:28:09.009Z,20.52
2023-05-20T07:30:35.852Z,20.60
2023-05-20T07:33:19.264Z,20.67
2023-05-20T07:35:49.428Z,20.80
2023-05-20T07:38:19.738Z,20.95
2023-05-20T07:40:51.633Z,20.99
2023-05-20T07:43:23.429Z,21.05
2023-05-20T07:45:51.179Z,21.15
2023-05-20T07:48:19.962Z,21.25
2023-05-20T07:50:53.596Z,21.36
2023-05-20T07:53:20.983Z,21.44
2023-05-20T07:55:48.088Z,21.50
2023-05-20T07:58:14.885Z,21.56
2023-05-20T08:00:41.605Z,21.65
2023-05-20T08:03:08.911Z,21.76
2023-05-20T08:05:46.730Z,21.87
2023-05-20T08:08:16.268Z,21.96
2023-05-20T08:10:54.655Z,22.07
2023-05-20T08:13:24.954Z,22.13
2023-05-20T08:15:58.215Z,22.21
2023-05-20T08:18:29.150Z,22.26
2023-05-20T08:21:01.343Z,22.33
2023-05-20T08:23:28.100Z,22.42
2023-05-20T08:25:54.944Z,22.51
2023-05-20T08:28:23.855Z,22.53
2023-05-20T08:30:52.200Z,22.55
2023-05-20T08:33:22.584Z,22.66
2023-05-20T08:35:49.427Z,22.78
2023-05-20T08:38:16.251Z,22.87
2023-05-20T08:40:45.284Z,22.97
2023-05-20T08:43:30.756Z,23.10
2023-05-20T08:46:08.924Z,23.23
2023-05-20T08:48:41.139Z,23.32
2023-05-20T08:51:12.902Z,23.35
2023-05-20T08:53:39.932Z,23.43
2023-05-20T08:56:06.821Z,23.48
2023-05-20T08:58:33.664Z,23.54
2023-05-20T09:01:01.460Z,23.58
2023-05-20T09:03:28.208Z,23.62
2023-05-20T09:06:07.001Z,23.71
2023-05-20T09:08:36.042Z,23.82
2023-05-20T09:11:02.826Z,23.95
2023-05-20T09:13:30.985Z,24.07
2023-05-20T09:16:01.230Z,24.25
2023-05-20T09:18:28.004Z,24.32
2023-05-20T09:20:55.061Z,24.44
2023-05-20T09:23:30.890Z,24.55
2023-05-20T09:26:00.375Z,24.61
2023-05-20T09:28:30.311Z,24.68
2023-05-20T09:31:02.437Z,24.78
2023-05-20T09:33:36.915Z,24.86
2023-05-20T09:36:04.628Z,24.97
2023-05-20T09:38:38.286Z,25.11
2023-05-20T09:41:11.235Z,25.20
2023-05-20T09:43:43.503Z,25.36
2023-05-20T09:46:10.214Z,25.45
2023-05-20T09:48:37.610Z,25.62
2023-05-20T09:51:07.375Z,25.75
2023-05-20T09:53:39.448Z,25.89
2023-05-20T09:56:06.221Z,26.08
2023-05-20T09:58:36.381Z,26.24
2023-05-20T10:01:06.651Z,26.27
2023-05-20T10:03:36.232Z,26.37
2023-05-20T10:06:06.696Z,26.46
2023-05-20T10:08:40.053Z,26.60
2023-05-20T10:11:21.509Z,26.80
2023-05-20T10:14:00.711Z,26.91
2023-05-20T10:16:30.801Z,27.11
2023-05-20T10:18:59.832Z,27.26
2023-05-20T10:21:28.923Z,27.46
2023-05-20T10:24:05.765Z,27.59
2023-05-20T10:26:44.251Z,27.73
2023-05-20T10:29:41.433Z,27.93
2023-05-20T10:35:53.501Z,28.38
2023-05-20T10:38:24.131Z,28.50
2023-05-20T10:41:26.781Z,28.75
2023-05-20T10:44:01.486Z,28.98
2023-05-20T10:46:38.023Z,29.21
2023-05-20T10:49:19.611Z,29.41
2023-05-20T10:51:50.599Z,29.47
2023-05-20T10:54:31.509Z,29.62
2023-05-20T10:57:12.173Z,29.81
2023-05-20T11:00:24.986Z,29.88
2023-05-20T11:04:13.710Z,30.04
2023-05-20T11:06:18.565Z,30.28
2023-05-20T11:09:04.084Z,30.35
2023-05-20T11:11:42.355Z,30.44
2023-05-20T11:15:27.128Z,30.63
2023-05-20T11:18:50.689Z,30.86
2023-05-20T11:22:24.827Z,31.04
2023-05-20T11:25:08.733Z,31.18
2023-05-20T11:28:16.725Z,31.33
2023-05-20T11:34:44.445Z,31.82
2023-05-20T11:37:01.875Z,31.48
2023-05-20T11:37:41.298Z,31.98
2023-05-20T11:40:54.082Z,32.28
2023-05-20T11:43:29.353Z,32.47
2023-05-20T11:46:13.248Z,32.56
2023-05-20T11:49:03.335Z,32.77
2023-05-20T11:51:44.312Z,33.01
2023-05-20T11:54:15.935Z,33.34
2023-05-20T11:56:47.655Z,33.49
2023-05-20T11:59:14.906Z,33.69
2023-05-20T12:01:41.790Z,33.84
2023-05-20T12:04:13.465Z,34.09
2023-05-20T12:06:56.223Z,34.27
2023-05-20T12:09:27.818Z,34.42
2023-05-20T12:12:38.042Z,34.70
2023-05-20T12:15:33.504Z,35.21
2023-05-20T12:18:34.398Z,35.41
2023-05-20T12:21:09.083Z,35.63
2023-05-20T12:23:41.092Z,35.77
2023-05-20T12:26:18.047Z,36.05
2023-05-20T12:33:14.784Z,37.61
2023-05-20T12:46:07.931Z,40.36
2023-05-20T12:50:19.016Z,41.73
2023-05-20T12:53:19.144Z,41.98
2023-05-20T12:55:47.468Z,42.22
2023-05-20T12:58:24.018Z,42.59
2023-05-20T13:01:05.681Z,42.75
2023-05-20T13:04:04.703Z,42.98
2023-05-20T13:07:09.045Z,43.11
2023-05-20T13:09:40.810Z,43.32
2023-05-20T13:12:35.622Z,43.57
2023-05-20T13:18:03.715Z,43.67
2023-05-20T13:18:06.146Z,43.95
2023-05-20T13:20:31.341Z,43.92
2023-05-20T13:23:34.143Z,44.27
2023-05-20T13:26:28.163Z,44.74
2023-05-20T13:29:00.141Z,44.97
2023-05-20T13:31:34.365Z,45.15
2023-05-20T13:34:08.851Z,45.88
2023-05-20T13:36:53.713Z,46.23
2023-05-20T13:39:28.437Z,46.02
2023-05-20T13:42:38.967Z,45.82
2023-05-20T13:46:20.021Z,45.77
2023-05-20T13:48:41.894Z,45.94
2023-05-20T13:51:12.332Z,46.23
2023-05-20T13:53:41.735Z,46.35
2023-05-20T13:56:12.954Z,46.39
2023-05-20T13:58:39.829Z,45.11
2023-05-20T14:01:06.986Z,44.08
2023-05-20T14:03:37.539Z,44.38
2023-05-20T14:09:03.064Z,44.92
2023-05-20T14:09:53.022Z,45.58
2023-05-20T14:12:52.280Z,45.94
2023-05-20T14:15:21.517Z,46.33
2023-05-20T14:18:46.636Z,46.01
2023-05-20T14:21:35.307Z,46.15
2023-05-20T14:23:36.094Z,46.51
2023-05-20T14:26:14.933Z,46.35
2023-05-20T14:28:52.919Z,46.31
2023-05-20T14:31:29.249Z,46.38
2023-05-20T14:34:02.667Z,46.44
2023-05-20T14:36:39.542Z,46.68
2023-05-20T14:39:14.057Z,46.32
2023-05-20T14:41:54.392Z,46.66
2023-05-20T14:44:23.549Z,46.31
2023-05-20T14:46:50.579Z,46.34
2023-05-20T14:49:21.949Z,46.66
2023-05-20T14:51:49.019Z,46.72
2023-05-20T14:54:17.184Z,46.56
2023-05-20T14:56:44.130Z,46.05
2023-05-20T14:59:11.053Z,46.05
2023-05-20T15:01:37.945Z,45.86
2023-05-20T15:04:05.258Z,46.10
2023-05-20T15:06:33.686Z,46.34
2023-05-20T15:09:07.366Z,46.47
2023-05-20T15:11:48.783Z,46.12
2023-05-20T15:14:21.805Z,43.85
2023-05-20T15:16:53.912Z,42.09
2023-05-20T15:19:23.884Z,41.19
2023-05-20T15:21:56.868Z,39.70
2023-05-20T15:24:28.777Z,38.66
2023-05-20T15:27:05.707Z,39.09
2023-05-20T15:29:40.974Z,39.79
2023-05-20T15:32:10.346Z,40.55
2023-05-20T15:34:41.710Z,40.60
2023-05-20T15:37:11.181Z,40.93
2023-05-20T15:39:38.760Z,41.18
2023-05-20T15:42:08.201Z,40.65
2023-05-20T15:44:40.492Z,40.14
2023-05-20T15:47:09.941Z,40.38
2023-05-20T15:49:59.548Z,40.34
2023-05-20T15:52:28.662Z,40.30
2023-05-20T15:55:02.392Z,39.16
2023-05-20T15:57:37.564Z,37.87
2023-05-20T16:00:09.567Z,37.08
2023-05-20T16:02:53.195Z,36.00
2023-05-20T16:05:36.602Z,35.24
2023-05-20T16:24:28.521Z,33.26
2023-05-20T16:25:39.413Z,31.49
2023-05-20T16:29:07.649Z,31.29
2023-05-20T16:36:02.747Z,30.70
2023-05-20T16:38:41.660Z,30.50
2023-05-20T16:41:28.186Z,30.21
2023-05-20T16:44:02.380Z,29.90
2023-05-20T16:46:42.514Z,29.75
2023-05-20T16:49:09.526Z,29.63
2023-05-20T16:51:36.737Z,29.51
2023-05-20T16:54:04.085Z,29.40
2023-05-20T16:56:42.396Z,29.21
2023-05-20T16:59:17.751Z,29.03
2023-05-20T17:01:52.283Z,28.76
2023-05-20T17:04:24.982Z,28.60
2023-05-20T17:06:56.966Z,28.44
2023-05-20T17:09:25.378Z,28.28
2023-05-20T17:11:58.690Z,28.05
2023-05-20T17:14:35.193Z,27.92
2023-05-20T17:17:10.636Z,27.77
2023-05-20T17:19:42.175Z,27.58
2023-05-20T17:22:08.967Z,27.39
2023-05-20T17:24:38.807Z,27.27
2023-05-20T17:27:11.253Z,27.16
2023-05-20T17:29:58.037Z,26.92
2023-05-20T17:32:25.004Z,26.80
2023-05-20T17:35:08.696Z,26.63
2023-05-20T17:37:38.179Z,26.51
2023-05-20T17:40:16.320Z,26.41
2023-05-20T17:45:28.609Z,26.26
2023-05-20T17:47:55.896Z,26.14
2023-05-20T17:50:28.730Z,26.02
2023-05-20T17:52:55.938Z,25.91
2023-05-20T17:55:22.984Z,25.79
2023-05-20T17:57:54.243Z,25.69
2023-05-20T18:00:26.237Z,25.59
2023-05-20T18:03:00.943Z,25.49
2023-05-20T18:05:35.604Z,25.39
2023-05-20T18:08:14.170Z,25.29
2023-05-20T18:10:51.352Z,25.23
2023-05-20T18:13:27.543Z,25.08
2023-05-20T18:15:58.181Z,25.04
2023-05-20T18:18:25.402Z,24.95
2023-05-20T18:20:52.900Z,24.89
2023-05-20T18:23:27.739Z,24.79
2023-05-20T18:25:54.757Z,24.76
2023-05-20T18:28:26.911Z,24.69
2023-05-20T18:30:55.787Z,24.62
2023-05-20T18:33:24.769Z,24.53
2023-05-20T18:35:57.211Z,24.48
2023-05-20T18:38:24.249Z,24.39
2023-05-20T18:41:01.734Z,24.33
2023-05-20T18:54:01.738Z,23.95
2023-05-20T18:56:32.612Z,23.82
2023-05-20T18:59:00.007Z,23.78
2023-05-20T19:01:27.595Z,23.72
2023-05-20T19:03:54.704Z,23.56
2023-05-20T19:06:23.805Z,23.42
2023-05-20T19:08:50.995Z,23.33
2023-05-20T19:11:21.673Z,23.25
2023-05-20T19:13:48.624Z,23.18
2023-05-20T19:16:16.181Z,23.14
2023-05-20T19:18:45.792Z,23.10
2023-05-20T19:21:12.922Z,23.01
2023-05-20T19:23:39.894Z,22.96
2023-05-20T19:26:15.566Z,22.95
2023-05-20T19:28:45.262Z,22.86
2023-05-20T19:31:12.476Z,22.71
2023-05-20T19:33:44.093Z,22.60
2023-05-20T19:36:15.644Z,22.57
2023-05-20T19:38:43.480Z,22.50
2023-05-20T19:41:13.626Z,22.43
2023-05-20T19:43:45.889Z,22.41
2023-05-20T19:46:13.284Z,22.40
2023-05-20T19:48:40.477Z,22.35
2023-05-20T19:51:09.859Z,22.36
2023-05-20T19:53:41.157Z,22.38
2023-05-20T19:56:10.764Z,22.39
2023-05-20T19:58:43.364Z,22.34
2023-05-20T20:01:11.063Z,22.27
2023-05-20T20:03:38.290Z,22.15
2023-05-20T20:06:05.243Z,22.15
2023-05-20T20:08:32.047Z,22.15
2023-05-20T20:10:58.869Z,22.12
2023-05-20T20:13:25.802Z,22.04
2023-05-20T20:15:53.258Z,21.98
2023-05-20T20:18:20.001Z,21.84
2023-05-20T20:20:47.156Z,21.76
2023-05-20T20:23:13.813Z,21.69
2023-05-20T20:25:41.212Z,21.64
2023-05-20T20:28:11.177Z,21.57
2023-05-20T20:30:38.402Z,21.53
2023-05-20T20:33:07.536Z,21.53
2023-05-20T20:35:34.878Z,21.52
2023-05-20T20:38:08.360Z,21.50
2023-05-20T20:40:39.421Z,21.46
2023-05-20T20:43:06.954Z,21.46
2023-05-20T20:45:42.708Z,21.42
2023-05-20T20:48:09.759Z,21.41
2023-05-20T20:50:36.641Z,21.37
2023-05-20T20:53:03.264Z,21.31
2023-05-20T20:55:30.688Z,21.25
2023-05-20T20:57:57.865Z,21.26
2023-05-20T21:00:27.510Z,21.21
2023-05-20T21:02:56.373Z,21.11
2023-05-20T21:05:26.755Z,21.06
2023-05-20T21:07:58.403Z,21.03
2023-05-20T21:10:29.639Z,21.01
2023-05-20T21:12:57.048Z,20.96
2023-05-20T21:15:23.987Z,20.87
2023-05-20T21:17:50.874Z,20.80
2023-05-20T21:20:21.507Z,20.71
2023-05-20T21:22:50.940Z,20.70
2023-05-20T21:25:17.645Z,20.67
2023-05-20T21:27:46.756Z,20.59
2023-05-20T21:30:13.647Z,20.57
2023-05-20T21:32:40.492Z,20.50
2023-05-20T21:35:07.545Z,20.43
2023-05-20T21:37:34.201Z,20.46
2023-05-20T21:40:00.930Z,20.46
2023-05-20T21:42:29.941Z,20.44
2023-05-20T21:44:59.284Z,20.40
2023-05-20T21:47:28.265Z,20.38
2023-05-20T21:49:57.431Z,20.39
2023-05-20T21:52:24.069Z,20.33
2023-05-20T21:54:50.757Z,20.19
2023-05-20T21:57:19.791Z,20.10
2023-05-20T21:59:48.987Z,20.05
2023-05-20T22:02:16.000Z,20.02
2023-05-20T22:04:43.616Z,20.01
2023-05-20T22:07:10.974Z,20.03
2023-05-20T22:09:37.692Z,20.02
2023-05-20T22:12:04.869Z,20.01
2023-05-20T22:14:34.066Z,19.95
2023-05-20T22:17:01.161Z,19.93
2023-05-20T22:19:28.221Z,19.87
2023-05-20T22:21:57.374Z,19.86
2023-05-20T22:24:24.025Z,19.81
2023-05-20T22:26:50.980Z,19.80
2023-05-20T22:29:17.565Z,19.73
2023-05-20T22:31:44.204Z,19.77
2023-05-20T22:34:13.230Z,19.77
2023-05-20T22:36:40.093Z,19.75
2023-05-20T22:39:09.132Z,19.71
2023-05-20T22:41:38.197Z,19.68
2023-05-20T22:44:05.036Z,19.65
2023-05-20T22:46:32.237Z,19.62
2023-05-20T22:48:59.235Z,19.62
2023-05-20T22:51:28.299Z,19.59
2023-05-20T22:53:55.999Z,19.56
2023-05-20T22:56:23.773Z,19.51
2023-05-20T22:58:50.617Z,19.52
2023-05-20T23:01:24.643Z,19.55
2023-05-20T23:03:53.552Z,19.50
2023-05-20T23:06:22.756Z,19.54
2023-05-20T23:08:49.632Z,19.54
2023-05-20T23:11:18.521Z,19.57
2023-05-20T23:13:47.522Z,19.58
2023-05-20T23:16:16.501Z,19.55
2023-05-20T23:18:46.491Z,19.56
2023-05-20T23:21:14.453Z,19.56
2023-05-20T23:23:41.650Z,19.55
2023-05-20T23:26:08.500Z,19.51
2023-05-20T23:28:35.182Z,19.50
2023-05-20T23:31:01.999Z,19.54
2023-05-20T23:33:29.568Z,19.57
2023-05-20T23:35:56.488Z,19.54
2023-05-20T23:38:25.752Z,19.52
2023-05-20T23:40:55.141Z,19.49
2023-05-20T23:43:24.821Z,19.52
2023-05-20T23:45:51.416Z,19.51
2023-05-20T23:48:20.736Z,19.52
2023-05-20T23:50:50.489Z,19.56
2023-05-20T23:53:17.571Z,19.57
2023-05-20T23:55:49.499Z,19.53
2023-05-20T23:58:19.342Z,19.39
